createdAt,value
2022-10-12T00:05:01.062Z,1.45
2022-10-12T00:10:05.530Z,1.51
2022-10-12T00:15:08.593Z,1.58
2022-10-12T00:20:11.820Z,1.48
2022-10-12T00:25:14.527Z,1.50
2022-10-12T00:30:17.237Z,1.44
2022-10-12T00:35:19.809Z,1.31
2022-10-12T00:40:23.352Z,1.22
2022-10-12T00:45:27.077Z,1.05
2022-10-12T00:50:35.482Z,0.84
2022-10-12T00:55:44.709Z,0.74
2022-10-12T01:00:47.498Z,0.73
2022-10-12T01:05:50.398Z,0.69
2022-10-12T01:10:53.022Z,0.61
2022-10-12T01:16:25.388Z,0.71
2022-10-12T01:21:28.684Z,0.54
2022-10-12T01:26:39.940Z,0.67
2022-10-12T01:31:53.088Z,0.38
2022-10-12T01:37:11.725Z,0.53
2022-10-12T01:42:20.406Z,0.45
2022-10-12T01:47:23.060Z,0.46
2022-10-12T01:52:32.224Z,0.45
2022-10-12T01:58:01.116Z,0.70
2022-10-12T02:03:17.317Z,0.66
2022-10-12T02:08:26.440Z,0.71
2022-10-12T02:13:33.175Z,0.86
2022-10-12T02:18:40.706Z,0.70
2022-10-12T02:23:45.725Z,0.57
2022-10-12T02:28:50.639Z,0.63
2022-10-12T02:34:13.532Z,0.57
2022-10-12T02:39:45.900Z,0.56
2022-10-12T02:44:49.322Z,0.55
2022-10-12T02:49:53.794Z,0.56
2022-10-12T02:54:56.465Z,0.51
2022-10-12T02:59:59.053Z,0.37
2022-10-12T03:05:01.644Z,0.36
2022-10-12T03:10:05.817Z,0.14
2022-10-12T03:15:08.629Z,0.22
2022-10-12T03:20:11.582Z,0.32
2022-10-12T03:25:14.634Z,0.43
2022-10-12T03:30:17.394Z,0.46
2022-10-12T03:35:19.965Z,0.57
2022-10-12T03:40:22.604Z,0.61
2022-10-12T03:45:25.201Z,0.69
2022-10-12T03:50:27.914Z,0.83
2022-10-12T03:55:31.588Z,0.87
2022-10-12T04:00:34.368Z,1.17
2022-10-12T04:05:36.984Z,1.34
2022-10-12T04:10:39.605Z,1.54
2022-10-12T04:15:42.161Z,1.68
2022-10-12T04:20:48.097Z,1.83
2022-10-12T04:25:50.774Z,2.05
2022-10-12T04:30:53.418Z,2.38
2022-10-12T04:35:56.270Z,2.65
2022-10-12T04:40:59.010Z,2.73
2022-10-12T04:46:01.656Z,2.96
2022-10-12T04:51:11.632Z,3.33
2022-10-12T04:56:14.511Z,3.43
2022-10-12T05:01:17.184Z,3.37
2022-10-12T05:06:19.797Z,3.46
2022-10-12T05:11:22.366Z,3.78
2022-10-12T05:16:25.277Z,3.97
2022-10-12T05:21:27.952Z,4.08
2022-10-12T05:26:30.543Z,4.30
2022-10-12T05:31:33.157Z,4.55
2022-10-12T05:36:35.824Z,4.72
2022-10-12T05:41:38.809Z,4.98
2022-10-12T05:46:41.374Z,4.95
2022-10-12T05:51:44.178Z,5.16
2022-10-12T05:56:46.948Z,5.15
2022-10-12T06:01:50.107Z,5.23
2022-10-12T06:06:52.808Z,5.19
2022-10-12T06:11:55.437Z,5.22
2022-10-12T06:16:58.136Z,5.68
2022-10-12T06:22:00.743Z,5.82
2022-10-12T06:27:03.410Z,5.95
2022-10-12T06:32:06.079Z,6.39
2022-10-12T06:37:16.401Z,6.69
2022-10-12T06:42:31.737Z,6.81
2022-10-12T06:47:34.421Z,7.17
2022-10-12T06:52:37.622Z,7.47
2022-10-12T06:57:40.544Z,7.83
2022-10-12T07:02:43.143Z,8.11
2022-10-12T07:07:46.003Z,8.41
2022-10-12T07:12:48.664Z,9.05
2022-10-12T07:17:51.283Z,9.84
2022-10-12T07:22:53.931Z,9.87
2022-10-12T07:27:56.857Z,9.97
2022-10-12T07:32:59.483Z,9.99
2022-10-12T07:38:03.008Z,9.79
2022-10-12T07:43:15.680Z,9.72
2022-10-12T07:48:19.589Z,9.33
2022-10-12T07:53:22.205Z,9.54
2022-10-12T07:58:24.904Z,9.63
2022-10-12T08:03:27.541Z,9.57
2022-10-12T08:08:30.245Z,9.45
2022-10-12T08:13:33.860Z,9.54
2022-10-12T08:18:36.584Z,9.57
2022-10-12T08:23:40.512Z,9.61
2022-10-12T08:28:43.694Z,9.80
2022-10-12T08:33:46.610Z,9.72
2022-10-12T08:38:55.027Z,9.81
2022-10-12T08:44:19.763Z,9.84
2022-10-12T08:49:25.355Z,9.98
2022-10-12T08:54:35.541Z,10.26
2022-10-12T08:59:38.188Z,10.70
2022-10-12T09:04:49.734Z,11.27
2022-10-12T09:10:12.517Z,11.31
2022-10-12T09:15:20.224Z,10.88
2022-10-12T09:20:50.793Z,11.10
2022-10-12T09:26:06.890Z,11.05
2022-10-12T09:31:40.257Z,11.45
2022-10-12T09:36:43.467Z,11.68
2022-10-12T09:41:48.920Z,11.50
2022-10-12T09:47:06.419Z,11.33
2022-10-12T09:52:10.331Z,11.17
2022-10-12T09:57:21.417Z,10.89
2022-10-12T10:02:26.698Z,10.69
2022-10-12T10:07:34.662Z,11.02
2022-10-12T10:13:01.737Z,11.31
2022-10-12T10:18:30.467Z,11.10
2022-10-12T10:23:42.537Z,11.36
2022-10-12T10:28:46.380Z,11.53
2022-10-12T10:34:09.957Z,10.87
2022-10-12T10:39:22.658Z,10.60
2022-10-12T10:44:33.850Z,10.58
2022-10-12T10:49:44.386Z,10.86
2022-10-12T10:55:05.642Z,10.85
2022-10-12T11:05:50.555Z,10.62
2022-10-12T11:10:56.335Z,10.61
2022-10-12T11:16:05.310Z,10.63
2022-10-12T11:21:14.508Z,10.51
2022-10-12T11:26:38.526Z,10.34
2022-10-12T11:31:59.147Z,10.19
2022-10-12T11:37:19.978Z,10.08
2022-10-12T11:42:43.068Z,10.09
2022-10-12T11:47:51.580Z,9.88
2022-10-12T11:52:56.677Z,10.02
2022-10-12T11:58:13.136Z,9.62
2022-10-12T12:03:45.743Z,9.31
2022-10-12T12:08:48.245Z,9.28
2022-10-12T12:13:50.994Z,9.39
2022-10-12T12:19:17.772Z,9.37
2022-10-12T12:24:20.515Z,9.19
2022-10-12T12:29:28.333Z,8.66
2022-10-12T12:34:31.026Z,8.77
2022-10-12T12:39:35.145Z,8.64
2022-10-12T12:44:37.673Z,8.50
2022-10-12T12:49:40.525Z,8.39
2022-10-12T12:55:08.201Z,8.13
2022-10-12T13:06:41.003Z,7.95
2022-10-12T13:12:05.269Z,7.98
2022-10-12T13:17:31.993Z,8.04
2022-10-12T13:22:35.378Z,7.96
2022-10-12T13:27:48.869Z,8.11
2022-10-12T13:33:02.519Z,7.96
2022-10-12T13:38:14.192Z,7.80
2022-10-12T13:43:26.806Z,7.71
2022-10-12T13:48:59.287Z,7.71
2022-10-12T13:53:55.766Z,7.82
2022-10-12T13:59:05.581Z,7.62
2022-10-12T14:04:11.756Z,7.53
2022-10-12T14:09:21.798Z,7.86
2022-10-12T14:14:29.106Z,8.01
2022-10-12T14:19:53.353Z,8.08
2022-10-12T14:25:09.157Z,8.16
2022-10-12T14:30:19.632Z,8.26
2022-10-12T14:35:32.566Z,8.31
2022-10-12T14:40:40.652Z,7.98
2022-10-12T14:45:43.269Z,7.92
2022-10-12T14:50:46.680Z,7.69
2022-10-12T14:55:52.295Z,7.41
2022-10-12T15:00:57.426Z,6.97
2022-10-12T15:06:00.168Z,7.00
2022-10-12T15:11:02.747Z,6.84
2022-10-12T15:16:14.545Z,6.74
2022-10-12T15:21:17.553Z,6.47
2022-10-12T15:26:20.254Z,6.17
2022-10-12T15:31:22.780Z,6.51
2022-10-12T15:36:25.525Z,6.30
2022-10-12T15:41:28.701Z,6.12
2022-10-12T15:46:31.292Z,6.16
2022-10-12T15:51:39.351Z,6.11
2022-10-12T15:56:41.923Z,5.87
2022-10-12T16:01:44.970Z,5.82
2022-10-12T16:06:47.565Z,5.76
2022-10-12T16:11:50.359Z,5.66
2022-10-12T16:16:52.945Z,5.51
2022-10-12T16:21:55.561Z,5.29
2022-10-12T16:26:58.330Z,5.16
2022-10-12T16:32:01.034Z,5.06
2022-10-12T16:37:03.581Z,5.10
2022-10-12T16:42:06.493Z,5.00
2022-10-12T16:47:09.127Z,4.95
2022-10-12T16:52:12.288Z,4.91
2022-10-12T16:57:15.025Z,4.84
2022-10-12T17:02:19.767Z,4.74
2022-10-12T17:07:22.605Z,4.68
2022-10-12T17:12:25.889Z,4.65
2022-10-12T17:17:28.477Z,4.58
2022-10-12T17:22:31.071Z,4.77
2022-10-12T17:27:34.153Z,4.73
2022-10-12T17:32:38.081Z,4.75
2022-10-12T17:37:40.780Z,4.79
2022-10-12T17:42:45.022Z,4.86
2022-10-12T17:47:48.996Z,5.00
2022-10-12T17:52:51.637Z,5.06
2022-10-12T17:57:54.236Z,5.23
2022-10-12T18:02:57.650Z,5.12
2022-10-12T18:08:00.259Z,5.04
2022-10-12T18:13:02.861Z,5.11
2022-10-12T18:18:05.616Z,5.10
2022-10-12T18:23:08.387Z,5.12
2022-10-12T18:28:12.292Z,5.20
2022-10-12T18:33:15.904Z,5.28
2022-10-12T18:38:18.549Z,5.06
2022-10-12T18:43:21.170Z,5.10
2022-10-12T18:48:23.953Z,5.12
2022-10-12T18:53:28.240Z,5.27
2022-10-12T18:58:31.954Z,5.29
2022-10-12T19:03:34.513Z,5.33
2022-10-12T19:08:37.874Z,5.41
2022-10-12T19:13:41.398Z,5.47
2022-10-12T19:18:44.141Z,5.51
2022-10-12T19:23:47.525Z,5.52
2022-10-12T19:28:51.242Z,5.59
2022-10-12T19:33:59.460Z,5.63
2022-10-12T19:39:07.712Z,5.58
2022-10-12T19:44:11.589Z,5.75
2022-10-12T19:49:16.187Z,5.69
2022-10-12T19:54:19.761Z,5.70
2022-10-12T19:59:22.344Z,5.78
2022-10-12T20:04:24.996Z,5.66
2022-10-12T20:09:27.973Z,5.54
2022-10-12T20:14:30.605Z,5.56
2022-10-12T20:19:33.536Z,5.52
2022-10-12T20:24:37.146Z,5.41
2022-10-12T20:29:40.272Z,5.37
2022-10-12T20:34:42.888Z,5.51
2022-10-12T20:39:49.618Z,5.55
2022-10-12T20:44:52.272Z,5.35
2022-10-12T20:49:54.868Z,5.27
2022-10-12T20:54:58.060Z,4.96
2022-10-12T21:00:00.739Z,4.96
2022-10-12T21:05:03.332Z,4.95
2022-10-12T21:10:06.685Z,4.96
2022-10-12T21:15:09.880Z,4.99
2022-10-12T21:20:12.733Z,5.11
2022-10-12T21:25:15.315Z,5.13
2022-10-12T21:30:18.110Z,4.87
2022-10-12T21:35:20.670Z,5.00
2022-10-12T21:40:23.270Z,5.04
2022-10-12T21:45:26.274Z,5.15
2022-10-12T21:50:28.957Z,5.25
2022-10-12T21:55:33.191Z,5.26
2022-10-12T22:00:35.859Z,5.30
2022-10-12T22:05:39.969Z,5.27
2022-10-12T22:10:42.849Z,5.10
2022-10-12T22:15:45.737Z,5.24
2022-10-12T22:20:48.357Z,5.30
2022-10-12T22:25:51.127Z,5.32
2022-10-12T22:30:53.651Z,5.33
2022-10-12T22:35:57.633Z,5.22
2022-10-12T22:41:11.848Z,5.09
2022-10-12T22:46:23.639Z,5.10
2022-10-12T22:51:33.525Z,5.25
2022-10-12T22:56:36.218Z,5.28
2022-10-12T23:01:38.858Z,5.33
2022-10-12T23:06:41.454Z,5.29
2022-10-12T23:11:44.113Z,5.30
2022-10-12T23:16:46.677Z,5.31
2022-10-12T23:21:49.261Z,5.09
2022-10-12T23:26:51.945Z,5.12
2022-10-12T23:31:54.557Z,5.13
2022-10-12T23:36:57.098Z,5.14
2022-10-12T23:41:59.619Z,5.10
2022-10-12T23:47:02.154Z,5.15
2022-10-12T23:52:04.978Z,5.15
2022-10-12T23:57:22.524Z,5.09
